EDLW/DTM METAR and TAF weather

Enter ICAO airport designator
Station Type Date Time Source
EDLW METAR 2022/07/01 02:20 UTC NOAA

EDLW 010220Z AUTO 22009KT 9999 // FEW010/// BKN014/// OVC019/// 14/12 Q1015


Station Type Date Time Source
EDLW Decoded METAR 2022/07/01 02:20 UTC NOAA

Dortmund / Wickede, Germany (EDLW) 51-31N 007-37E
Jun 30, 2022 - 10:20 PM EDT / 2022.07.01 0220 UTC
Wind: from the SW (220 degrees) at 10 MPH (9 KT):0
Visibility: greater than 7 mile(s):0
Sky conditions: overcast
Temperature: 57 F (14 C)
Dew Point: 53 F (12 C)
Relative Humidity: 87%
Pressure (altimeter): 29.97 in. Hg (1015 hPa)
ob: EDLW 010220Z AUTO 22009KT 9999 // FEW010/// BKN014/// OVC019/// 14/12 Q1015
cycle: 2

Station Type Date Time Source
EDLW TAF 2022/06/30 21:57 UTC NOAA

TAF TAF EDLW 302150Z 3021/0118 CNL

Example: see airport list